Time;durP1;ratioP1;P1;durP2;ratioP2;P2;SDS_P1;SDS_P2;PMS_P1;PMS_P2;Temp;Humidity;BMP_temperature;BMP_pressure;BME280_temperature;BME280_humidity;BME280_pressure;Samples;Min_cycle;Max_cycle;Signal;HPM_P1;HPM_P2
2022/04/08 22:06:27;;;;;;;2.13;1.92;;;13.10;58.60;;;;;;5071213;28;20943;-69
2022/04/08 22:08:53;;;;;;;2.20;1.98;;;13.10;58.50;;;;;;5069849;28;20040;-67
2022/04/08 22:11:19;;;;;;;2.10;1.90;;;13.10;58.50;;;;;;5070642;28;20104;-69
2022/04/08 22:13:44;;;;;;;2.20;2.00;;;13.10;58.50;;;;;;5069040;28;20025;-67
2022/04/08 22:16:10;;;;;;;2.10;1.80;;;13.00;58.50;;;;;;5070869;28;20103;-67
2022/04/08 22:18:36;;;;;;;2.22;2.03;;;13.10;58.70;;;;;;5070759;28;20135;-67
2022/04/08 22:21:01;;;;;;;2.20;2.10;;;13.10;58.70;;;;;;5070801;28;20401;-68
2022/04/08 22:23:27;;;;;;;2.30;2.10;;;13.00;58.70;;;;;;5069298;28;20538;-68
2022/04/08 22:25:53;;;;;;;2.85;2.33;;;13.00;58.70;;;;;;5070561;28;20058;-68
2022/04/08 22:28:19;;;;;;;2.22;2.00;;;13.00;58.70;;;;;;5070472;28;20102;-68
2022/04/08 22:30:45;;;;;;;2.40;2.10;;;13.00;58.70;;;;;;5069821;28;20060;-68
2022/04/08 22:33:11;;;;;;;2.05;1.90;;;13.00;59.40;;;;;;5069718;28;20025;-68
2022/04/08 22:35:36;;;;;;;3.15;2.30;;;13.00;58.80;;;;;;5070301;28;20108;-68
2022/04/08 22:38:02;;;;;;;2.60;2.10;;;13.00;58.80;;;;;;5070391;28;20050;-67
2022/04/08 22:40:28;;;;;;;2.58;2.03;;;13.00;58.80;;;;;;5070154;28;20103;-68
2022/04/08 22:42:54;;;;;;;2.28;2.08;;;13.00;58.80;;;;;;5069978;28;20035;-68
2022/04/08 22:45:22;;;;;;;2.40;2.20;;;13.00;58.80;;;;;;5070246;28;20028;-68
2022/04/08 22:47:48;;;;;;;2.10;1.90;;;13.00;58.90;;;;;;5069309;28;20028;-68
2022/04/08 22:50:14;;;;;;;2.30;2.10;;;13.00;58.90;;;;;;5070290;28;20389;-67
2022/04/08 22:52:40;;;;;;;2.20;2.00;;;13.00;58.90;;;;;;5070079;28;20032;-67
2022/04/08 22:55:06;;;;;;;2.40;2.20;;;13.00;59.00;;;;;;5069962;28;20485;-67
2022/04/08 22:57:32;;;;;;;3.10;2.13;;;13.00;59.00;;;;;;5069901;28;20029;-68
2022/04/08 22:59:58;;;;;;;2.35;2.10;;;13.00;59.00;;;;;;5070122;28;20020;-69
2022/04/08 23:02:24;;;;;;;2.45;2.20;;;12.90;59.00;;;;;;5070046;28;20090;-69
2022/04/08 23:04:49;;;;;;;2.20;2.00;;;12.90;59.00;;;;;;5069701;28;20053;-68
2022/04/08 23:07:15;;;;;;;2.90;2.30;;;12.90;59.00;;;;;;5069967;28;20060;-69
2022/04/08 23:09:41;;;;;;;3.05;2.10;;;13.00;59.00;;;;;;5069753;28;20060;-68
2022/04/08 23:12:08;;;;;;;2.85;2.20;;;12.90;59.00;;;;;;5069463;28;20028;-69
2022/04/08 23:14:34;;;;;;;2.47;2.20;;;12.90;59.00;;;;;;5068423;28;20033;-66
2022/04/08 23:17:00;;;;;;;2.45;2.25;;;12.90;59.00;;;;;;5060768;28;20392;-69
2022/04/08 23:19:26;;;;;;;2.75;2.38;;;12.90;59.00;;;;;;5056420;28;20057;-67
2022/04/08 23:21:55;;;;;;;2.58;2.20;;;12.90;59.10;;;;;;5056236;28;20470;-67
2022/04/08 23:24:21;;;;;;;2.40;2.20;;;12.90;59.10;;;;;;5056033;28;20109;-69
2022/04/08 23:26:46;;;;;;;3.13;2.20;;;12.90;59.10;;;;;;5055240;28;20029;-67
2022/04/08 23:29:13;;;;;;;3.28;2.50;;;12.90;59.10;;;;;;5056230;28;20021;-67
2022/04/08 23:31:38;;;;;;;2.80;2.40;;;12.90;59.10;;;;;;5056114;28;20040;-68
2022/04/08 23:34:04;;;;;;;2.58;2.30;;;12.90;59.20;;;;;;5055856;28;20024;-67
2022/04/08 23:36:31;;;;;;;2.63;2.17;;;12.80;59.10;;;;;;5056147;28;20036;-67
2022/04/08 23:38:57;;;;;;;3.10;2.40;;;12.80;59.10;;;;;;5056078;28;20486;-68
2022/04/08 23:41:25;;;;;;;2.97;2.55;;;12.80;59.20;;;;;;5055922;28;20116;-67
2022/04/08 23:43:51;;;;;;;3.20;2.45;;;12.80;59.20;;;;;;5056148;28;20021;-67
2022/04/08 23:46:18;;;;;;;3.42;2.53;;;12.80;59.10;;;;;;5056029;28;20069;-67
2022/04/08 23:48:44;;;;;;;4.10;2.65;;;12.80;59.10;;;;;;5055788;28;20056;-67
2022/04/08 23:51:09;;;;;;;3.22;2.65;;;12.80;59.10;;;;;;5055630;28;20435;-67
2022/04/08 23:53:35;;;;;;;3.83;2.95;;;12.80;59.20;;;;;;5055740;28;20592;-68
2022/04/08 23:56:01;;;;;;;2.85;2.50;;;12.80;59.20;;;;;;5055922;28;20052;-68
2022/04/08 23:58:26;;;;;;;3.20;2.53;;;12.80;59.20;;;;;;5055602;28;20087;-67
